Brinckley, Indiana
Current Conditions -  °F | °C
As of 1:53 PM on Monday 20 Oct 2014 (Local Time) from KMIE Reporting Station
Overcast Overcast  
Wind Chill: 55°   Ceiling: 2100
Heat Index: 55°   Visibility: 10mi
Dew Point: 52°   Wind: 7mph
Humidity: 89%   Direction: 210°SSW
Pressure: 29.84"   Gusts: NA
Location:  40.2108°N, 85.1197°W
Report Text: KMIE 201753Z 21006KT 10SM BKN021 OVC060 13/11 A2984 RMK AO2 LTG DSNT NE AND E RAB01E43 TSB22E44 SLP104 P0003 60013 T01280111 10133 20106 56016
Loading
Personal Weather Stations






























Interactive Weather Map New forecast layout! Learn more

10-Day Weather Forecast

Advertisements
Track Severe Weather on mobile